
<gpx xmlns="http://www.topografix.com/GPX/1/1" xmlns:gpxx="http://www.garmin.com/xmlschemas/GpxExtensions/v3" xmlns:xsi="http://www.w3.org/2001/XMLSchema-instance" version="1.1" creator="Adze - https://getadze.com/" xsi:schemaLocation="http://www.topografix.com/GPX/1/1 http://www.topografix.com/GPX/1/1/gpx.xsd http://www.garmin.com/xmlschemas/GpxExtensions/v3 http://www.garmin.com/xmlschemas/GpxExtensionsv3.xsd">
    <metadata>
        <name>Untitled Document</name>
        <link href="http://www.garmin.com"></link>
        <time>2018-03-07T08:05:44.110Z</time>
    </metadata>
    <wpt lon="100.994319" lat="12.918264">
        <ele>85.000000</ele>
        <name>Tahmmasat learning center</name>
        <cmt>17-OCT-08 14:38:28</cmt>
        <desc>17-OCT-08 14:38:28</desc>
        <sym>City Hall</sym>
        <extensions>
            <gpxx:WaypointExtension xmlns:gpxx="http://www.garmin.com/xmlschemas/GpxExtensions/v3">
                <gpxx:DisplayMode>SymbolOnly</gpxx:DisplayMode>
            </gpxx:WaypointExtension>
        </extensions>
    </wpt>
    <wpt lon="100.957495" lat="12.974159">
        <ele>26.000000</ele>
        <name>October 2008 - Sunday water</name>
        <cmt>19-OCT-08 11:05:23</cmt>
        <desc>19-OCT-08 11:05:23</desc>
        <sym>Drinking Water</sym>
        <extensions>
            <gpxx:WaypointExtension xmlns:gpxx="http://www.garmin.com/xmlschemas/GpxExtensions/v3">
                <gpxx:DisplayMode>SymbolOnly</gpxx:DisplayMode>
            </gpxx:WaypointExtension>
        </extensions>
    </wpt>
    <trk>
        <name>October 2008 - Sunday</name>
        <extensions>
            <gpxx:TrackExtension xmlns:gpxx="http://www.garmin.com/xmlschemas/GpxExtensions/v3">
                <gpxx:DisplayColor>Green</gpxx:DisplayColor>
            </gpxx:TrackExtension>
        </extensions>
        <trkseg>
            <trkpt lon="100.993944" lat="12.918047">
                <ele>84.252685</ele>
                <time>2008-10-19T02:36:24Z</time>
            </trkpt>
            <trkpt lon="100.994000" lat="12.918312">
                <ele>82.330078</ele>
                <time>2008-10-19T02:36:35Z</time>
            </trkpt>
            <trkpt lon="100.994037" lat="12.918326">
                <ele>82.330078</ele>
                <time>2008-10-19T02:36:36Z</time>
            </trkpt>
            <trkpt lon="100.994205" lat="12.918318">
                <ele>81.368774</ele>
                <time>2008-10-19T02:36:40Z</time>
            </trkpt>
            <trkpt lon="100.994796" lat="12.918176">
                <ele>79.446045</ele>
                <time>2008-10-19T02:36:56Z</time>
            </trkpt>
            <trkpt lon="100.995070" lat="12.918162">
                <ele>79.446045</ele>
                <time>2008-10-19T02:37:03Z</time>
            </trkpt>
            <trkpt lon="100.995119" lat="12.918256">
                <ele>79.446045</ele>
                <time>2008-10-19T02:37:07Z</time>
            </trkpt>
            <trkpt lon="100.995220" lat="12.918695">
                <ele>80.888184</ele>
                <time>2008-10-19T02:37:21Z</time>
            </trkpt>
            <trkpt lon="100.995393" lat="12.919117">
                <ele>81.849365</ele>
                <time>2008-10-19T02:37:38Z</time>
            </trkpt>
            <trkpt lon="100.995576" lat="12.919560">
                <ele>83.291382</ele>
                <time>2008-10-19T02:37:56Z</time>
            </trkpt>
            <trkpt lon="100.995968" lat="12.920095">
                <ele>85.694580</ele>
                <time>2008-10-19T02:38:18Z</time>
            </trkpt>
            <trkpt lon="100.996441" lat="12.920448">
                <ele>87.617188</ele>
                <time>2008-10-19T02:38:40Z</time>
            </trkpt>
            <trkpt lon="100.996698" lat="12.920580">
                <ele>89.539917</ele>
                <time>2008-10-19T02:38:56Z</time>
            </trkpt>
            <trkpt lon="100.996601" lat="12.920758">
                <ele>88.578735</ele>
                <time>2008-10-19T02:39:08Z</time>
            </trkpt>
            <trkpt lon="100.996609" lat="12.920849">
                <ele>88.578735</ele>
                <time>2008-10-19T02:39:13Z</time>
            </trkpt>
            <trkpt lon="100.996777" lat="12.921094">
                <ele>91.943237</ele>
                <time>2008-10-19T02:39:30Z</time>
            </trkpt>
            <trkpt lon="100.997014" lat="12.921287">
                <ele>97.230469</ele>
                <time>2008-10-19T02:39:49Z</time>
            </trkpt>
            <trkpt lon="100.997299" lat="12.921375">
                <ele>101.075684</ele>
                <time>2008-10-19T02:40:09Z</time>
            </trkpt>
            <trkpt lon="100.997369" lat="12.921399">
                <ele>103.479004</ele>
                <time>2008-10-19T02:40:20Z</time>
            </trkpt>
            <trkpt lon="100.997460" lat="12.921410">
                <ele>106.843628</ele>
                <time>2008-10-19T02:40:44Z</time>
            </trkpt>
            <trkpt lon="100.997617" lat="12.921425">
                <ele>109.727661</ele>
                <time>2008-10-19T02:41:01Z</time>
            </trkpt>
            <trkpt lon="100.997824" lat="12.921438">
                <ele>111.650269</ele>
                <time>2008-10-19T02:41:21Z</time>
            </trkpt>
            <trkpt lon="100.997953" lat="12.921417">
                <ele>113.092285</ele>
                <time>2008-10-19T02:41:40Z</time>
            </trkpt>
            <trkpt lon="100.997942" lat="12.921413">
                <ele>113.572998</ele>
                <time>2008-10-19T02:42:04Z</time>
            </trkpt>
            <trkpt lon="100.997942" lat="12.921422">
                <ele>113.092285</ele>
                <time>2008-10-19T02:42:37Z</time>
            </trkpt>
            <trkpt lon="100.997910" lat="12.921438">
                <ele>112.611572</ele>
                <time>2008-10-19T02:42:41Z</time>
            </trkpt>
            <trkpt lon="100.997635" lat="12.921424">
                <ele>109.727661</ele>
                <time>2008-10-19T02:42:54Z</time>
            </trkpt>
            <trkpt lon="100.997081" lat="12.921327">
                <ele>103.959717</ele>
                <time>2008-10-19T02:43:10Z</time>
            </trkpt>
            <trkpt lon="100.996770" lat="12.921102">
                <ele>98.191895</ele>
                <time>2008-10-19T02:43:23Z</time>
            </trkpt>
            <trkpt lon="100.996650" lat="12.920934">
                <ele>94.827148</ele>
                <time>2008-10-19T02:43:29Z</time>
            </trkpt>
            <trkpt lon="100.996670" lat="12.920740">
                <ele>93.385132</ele>
                <time>2008-10-19T02:43:34Z</time>
            </trkpt>
            <trkpt lon="100.997069" lat="12.920545">
                <ele>92.423950</ele>
                <time>2008-10-19T02:43:50Z</time>
            </trkpt>
            <trkpt lon="100.997421" lat="12.920538">
                <ele>92.423950</ele>
                <time>2008-10-19T02:44:07Z</time>
            </trkpt>
            <trkpt lon="100.997662" lat="12.920561">
                <ele>92.423950</ele>
                <time>2008-10-19T02:44:19Z</time>
            </trkpt>
            <trkpt lon="100.997694" lat="12.920578">
                <ele>92.904541</ele>
                <time>2008-10-19T02:44:35Z</time>
            </trkpt>
            <trkpt lon="100.997672" lat="12.920560">
                <ele>92.904541</ele>
                <time>2008-10-19T02:44:45Z</time>
            </trkpt>
            <trkpt lon="100.997304" lat="12.920526">
                <ele>92.423950</ele>
                <time>2008-10-19T02:45:03Z</time>
            </trkpt>
            <trkpt lon="100.996846" lat="12.920584">
                <ele>90.981934</ele>
                <time>2008-10-19T02:45:20Z</time>
            </trkpt>
            <trkpt lon="100.996780" lat="12.920628">
                <ele>89.539917</ele>
                <time>2008-10-19T02:45:35Z</time>
            </trkpt>
            <trkpt lon="100.996731" lat="12.920618">
                <ele>89.539917</ele>
                <time>2008-10-19T02:46:29Z</time>
            </trkpt>
            <trkpt lon="100.996574" lat="12.920756">
                <ele>89.539917</ele>
                <time>2008-10-19T02:46:41Z</time>
            </trkpt>
            <trkpt lon="100.995961" lat="12.921306">
                <ele>87.136597</ele>
                <time>2008-10-19T02:46:58Z</time>
            </trkpt>
            <trkpt lon="100.995312" lat="12.921871">
                <ele>83.291382</ele>
                <time>2008-10-19T02:47:14Z</time>
            </trkpt>
            <trkpt lon="100.994950" lat="12.921867">
                <ele>82.810791</ele>
                <time>2008-10-19T02:47:21Z</time>
            </trkpt>
            <trkpt lon="100.994164" lat="12.921379">
                <ele>82.810791</ele>
                <time>2008-10-19T02:47:39Z</time>
            </trkpt>
            <trkpt lon="100.993690" lat="12.920784">
                <ele>84.252685</ele>
                <time>2008-10-19T02:47:56Z</time>
            </trkpt>
            <trkpt lon="100.993369" lat="12.920314">
                <ele>84.252685</ele>
                <time>2008-10-19T02:48:10Z</time>
            </trkpt>
            <trkpt lon="100.992709" lat="12.919988">
                <ele>84.252685</ele>
                <time>2008-10-19T02:48:28Z</time>
            </trkpt>
            <trkpt lon="100.992117" lat="12.919725">
                <ele>83.771973</ele>
                <time>2008-10-19T02:48:42Z</time>
            </trkpt>
            <trkpt lon="100.991845" lat="12.919397">
                <ele>82.810791</ele>
                <time>2008-10-19T02:48:54Z</time>
            </trkpt>
            <trkpt lon="100.991731" lat="12.919072">
                <ele>83.291382</ele>
                <time>2008-10-19T02:49:04Z</time>
            </trkpt>
            <trkpt lon="100.991603" lat="12.919082">
                <ele>83.291382</ele>
                <time>2008-10-19T02:49:09Z</time>
            </trkpt>
            <trkpt lon="100.991071" lat="12.919062">
                <ele>82.810791</ele>
                <time>2008-10-19T02:49:25Z</time>
            </trkpt>
            <trkpt lon="100.990468" lat="12.919131">
                <ele>81.368774</ele>
                <time>2008-10-19T02:49:42Z</time>
            </trkpt>
            <trkpt lon="100.990282" lat="12.919133">
                <ele>81.368774</ele>
                <time>2008-10-19T02:49:47Z</time>
            </trkpt>
            <trkpt lon="100.990128" lat="12.919103">
                <ele>80.888184</ele>
                <time>2008-10-19T02:49:51Z</time>
            </trkpt>
            <trkpt lon="100.989521" lat="12.918975">
                <ele>79.446045</ele>
                <time>2008-10-19T02:50:08Z</time>
            </trkpt>
            <trkpt lon="100.988917" lat="12.918892">
                <ele>79.446045</ele>
                <time>2008-10-19T02:50:24Z</time>
            </trkpt>
            <trkpt lon="100.988440" lat="12.918799">
                <ele>78.965454</ele>
                <time>2008-10-19T02:50:41Z</time>
            </trkpt>
            <trkpt lon="100.988080" lat="12.918937">
                <ele>77.523438</ele>
                <time>2008-10-19T02:50:56Z</time>
            </trkpt>
            <trkpt lon="100.988061" lat="12.918951">
                <ele>77.523438</ele>
                <time>2008-10-19T02:50:57Z</time>
            </trkpt>
            <trkpt lon="100.988022" lat="12.919399">
                <ele>78.004028</ele>
                <time>2008-10-19T02:51:10Z</time>
            </trkpt>
            <trkpt lon="100.987874" lat="12.919869">
                <ele>76.562134</ele>
                <time>2008-10-19T02:51:24Z</time>
            </trkpt>
            <trkpt lon="100.987850" lat="12.919875">
                <ele>76.562134</ele>
                <time>2008-10-19T02:51:25Z</time>
            </trkpt>
            <trkpt lon="100.987747" lat="12.919841">
                <ele>77.042847</ele>
                <time>2008-10-19T02:51:30Z</time>
            </trkpt>
            <trkpt lon="100.987636" lat="12.920080">
                <ele>76.081421</ele>
                <time>2008-10-19T02:51:38Z</time>
            </trkpt>
            <trkpt lon="100.987643" lat="12.920209">
                <ele>76.081421</ele>
                <time>2008-10-19T02:51:41Z</time>
            </trkpt>
            <trkpt lon="100.987605" lat="12.921079">
                <ele>71.755493</ele>
                <time>2008-10-19T02:51:59Z</time>
            </trkpt>
            <trkpt lon="100.987495" lat="12.921369">
                <ele>69.832886</ele>
                <time>2008-10-19T02:52:09Z</time>
            </trkpt>
            <trkpt lon="100.986990" lat="12.921201">
                <ele>69.352295</ele>
                <time>2008-10-19T02:52:26Z</time>
            </trkpt>
            <trkpt lon="100.986460" lat="12.920974">
                <ele>70.313477</ele>
                <time>2008-10-19T02:52:45Z</time>
            </trkpt>
            <trkpt lon="100.985941" lat="12.920762">
                <ele>68.390869</ele>
                <time>2008-10-19T02:52:59Z</time>
            </trkpt>
            <trkpt lon="100.985438" lat="12.920449">
                <ele>68.390869</ele>
                <time>2008-10-19T02:53:17Z</time>
            </trkpt>
            <trkpt lon="100.984985" lat="12.920393">
                <ele>68.871582</ele>
                <time>2008-10-19T02:53:32Z</time>
            </trkpt>
            <trkpt lon="100.984630" lat="12.920459">
                <ele>67.910278</ele>
                <time>2008-10-19T02:53:41Z</time>
            </trkpt>
            <trkpt lon="100.984305" lat="12.920470">
                <ele>69.352295</ele>
                <time>2008-10-19T02:53:53Z</time>
            </trkpt>
            <trkpt lon="100.984048" lat="12.920476">
                <ele>70.313477</ele>
                <time>2008-10-19T02:54:06Z</time>
            </trkpt>
            <trkpt lon="100.984026" lat="12.920482">
                <ele>70.313477</ele>
                <time>2008-10-19T02:54:08Z</time>
            </trkpt>
            <trkpt lon="100.983999" lat="12.920518">
                <ele>70.313477</ele>
                <time>2008-10-19T02:54:12Z</time>
            </trkpt>
            <trkpt lon="100.983860" lat="12.921176">
                <ele>68.871582</ele>
                <time>2008-10-19T02:54:28Z</time>
            </trkpt>
            <trkpt lon="100.983400" lat="12.921793">
                <ele>67.429688</ele>
                <time>2008-10-19T02:54:43Z</time>
            </trkpt>
            <trkpt lon="100.983111" lat="12.921924">
                <ele>66.468262</ele>
                <time>2008-10-19T02:54:48Z</time>
            </trkpt>
            <trkpt lon="100.982235" lat="12.922154">
                <ele>64.065063</ele>
                <time>2008-10-19T02:55:05Z</time>
            </trkpt>
            <trkpt lon="100.982135" lat="12.922290">
                <ele>60.700317</ele>
                <time>2008-10-19T02:55:12Z</time>
            </trkpt>
            <trkpt lon="100.982232" lat="12.922457">
                <ele>60.219727</ele>
                <time>2008-10-19T02:55:20Z</time>
            </trkpt>
            <trkpt lon="100.982109" lat="12.922614">
                <ele>59.739136</ele>
                <time>2008-10-19T02:55:31Z</time>
            </trkpt>
            <trkpt lon="100.981906" lat="12.922818">
                <ele>58.777710</ele>
                <time>2008-10-19T02:55:42Z</time>
            </trkpt>
            <trkpt lon="100.981828" lat="12.923197">
                <ele>58.297119</ele>
                <time>2008-10-19T02:55:56Z</time>
            </trkpt>
            <trkpt lon="100.981806" lat="12.923573">
                <ele>57.335815</ele>
                <time>2008-10-19T02:56:10Z</time>
            </trkpt>
            <trkpt lon="100.981913" lat="12.924039">
                <ele>55.413086</ele>
                <time>2008-10-19T02:56:24Z</time>
            </trkpt>
            <trkpt lon="100.982113" lat="12.924537">
                <ele>54.932373</ele>
                <time>2008-10-19T02:56:39Z</time>
            </trkpt>
            <trkpt lon="100.982397" lat="12.924881">
                <ele>56.374512</ele>
                <time>2008-10-19T02:56:52Z</time>
            </trkpt>
            <trkpt lon="100.982884" lat="12.925259">
                <ele>57.335815</ele>
                <time>2008-10-19T02:57:10Z</time>
            </trkpt>
            <trkpt lon="100.983389" lat="12.925317">
                <ele>58.297119</ele>
                <time>2008-10-19T02:57:27Z</time>
            </trkpt>
            <trkpt lon="100.983860" lat="12.925204">
                <ele>59.258423</ele>
                <time>2008-10-19T02:57:43Z</time>
            </trkpt>
            <trkpt lon="100.984415" lat="12.925105">
                <ele>60.700317</ele>
                <time>2008-10-19T02:58:02Z</time>
            </trkpt>
            <trkpt lon="100.985023" lat="12.924943">
                <ele>61.661743</ele>
                <time>2008-10-19T02:58:23Z</time>
            </trkpt>
            <trkpt lon="100.985610" lat="12.924973">
                <ele>62.142334</ele>
                <time>2008-10-19T02:58:42Z</time>
            </trkpt>
            <trkpt lon="100.986125" lat="12.925131">
                <ele>63.103638</ele>
                <time>2008-10-19T02:59:00Z</time>
            </trkpt>
            <trkpt lon="100.986583" lat="12.925110">
                <ele>63.103638</ele>
                <time>2008-10-19T02:59:14Z</time>
            </trkpt>
            <trkpt lon="100.986901" lat="12.925283">
                <ele>63.584351</ele>
                <time>2008-10-19T02:59:24Z</time>
            </trkpt>
            <trkpt lon="100.987430" lat="12.925578">
                <ele>63.584351</ele>
                <time>2008-10-19T02:59:41Z</time>
            </trkpt>
            <trkpt lon="100.987658" lat="12.925646">
                <ele>64.065063</ele>
                <time>2008-10-19T02:59:49Z</time>
            </trkpt>
            <trkpt lon="100.987673" lat="12.925739">
                <ele>64.065063</ele>
                <time>2008-10-19T02:59:53Z</time>
            </trkpt>
            <trkpt lon="100.987517" lat="12.926420">
                <ele>63.584351</ele>
                <time>2008-10-19T03:00:12Z</time>
            </trkpt>
            <trkpt lon="100.987188" lat="12.927159">
                <ele>63.103638</ele>
                <time>2008-10-19T03:00:33Z</time>
            </trkpt>
            <trkpt lon="100.986991" lat="12.927593">
                <ele>62.622925</ele>
                <time>2008-10-19T03:00:45Z</time>
            </trkpt>
            <trkpt lon="100.986644" lat="12.928085">
                <ele>62.622925</ele>
                <time>2008-10-19T03:01:00Z</time>
            </trkpt>
            <trkpt lon="100.986560" lat="12.928176">
                <ele>63.103638</ele>
                <time>2008-10-19T03:01:03Z</time>
            </trkpt>
            <trkpt lon="100.986215" lat="12.928440">
                <ele>62.142334</ele>
                <time>2008-10-19T03:01:14Z</time>
            </trkpt>
            <trkpt lon="100.986063" lat="12.929005">
                <ele>62.622925</ele>
                <time>2008-10-19T03:01:29Z</time>
            </trkpt>
            <trkpt lon="100.985908" lat="12.929484">
                <ele>63.103638</ele>
                <time>2008-10-19T03:01:45Z</time>
            </trkpt>
            <trkpt lon="100.986013" lat="12.929777">
                <ele>62.622925</ele>
                <time>2008-10-19T03:01:59Z</time>
            </trkpt>
            <trkpt lon="100.986153" lat="12.930164">
                <ele>62.142334</ele>
                <time>2008-10-19T03:02:17Z</time>
            </trkpt>
            <trkpt lon="100.986225" lat="12.930400">
                <ele>61.181030</ele>
                <time>2008-10-19T03:02:32Z</time>
            </trkpt>
            <trkpt lon="100.986381" lat="12.930848">
                <ele>62.142334</ele>
                <time>2008-10-19T03:02:51Z</time>
            </trkpt>
            <trkpt lon="100.986424" lat="12.930964">
                <ele>61.661743</ele>
                <time>2008-10-19T03:02:55Z</time>
            </trkpt>
            <trkpt lon="100.986330" lat="12.931049">
                <ele>61.181030</ele>
                <time>2008-10-19T03:03:00Z</time>
            </trkpt>
            <trkpt lon="100.985600" lat="12.931373">
                <ele>60.219727</ele>
                <time>2008-10-19T03:03:19Z</time>
            </trkpt>
            <trkpt lon="100.984834" lat="12.931871">
                <ele>59.739136</ele>
                <time>2008-10-19T03:03:38Z</time>
            </trkpt>
            <trkpt lon="100.984041" lat="12.932557">
                <ele>57.335815</ele>
                <time>2008-10-19T03:03:58Z</time>
            </trkpt>
            <trkpt lon="100.983390" lat="12.932962">
                <ele>55.893799</ele>
                <time>2008-10-19T03:04:14Z</time>
            </trkpt>
            <trkpt lon="100.982945" lat="12.933248">
                <ele>54.932373</ele>
                <time>2008-10-19T03:04:28Z</time>
            </trkpt>
            <trkpt lon="100.982937" lat="12.933261">
                <ele>54.932373</ele>
                <time>2008-10-19T03:04:29Z</time>
            </trkpt>
            <trkpt lon="100.982988" lat="12.933267">
                <ele>54.932373</ele>
                <time>2008-10-19T03:04:33Z</time>
            </trkpt>
            <trkpt lon="100.983465" lat="12.932951">
                <ele>55.893799</ele>
                <time>2008-10-19T03:04:49Z</time>
            </trkpt>
            <trkpt lon="100.984009" lat="12.932607">
                <ele>57.335815</ele>
                <time>2008-10-19T03:05:05Z</time>
            </trkpt>
            <trkpt lon="100.984078" lat="12.932663">
                <ele>57.335815</ele>
                <time>2008-10-19T03:05:10Z</time>
            </trkpt>
            <trkpt lon="100.984197" lat="12.933143">
                <ele>54.451782</ele>
                <time>2008-10-19T03:05:23Z</time>
            </trkpt>
            <trkpt lon="100.984488" lat="12.933592">
                <ele>52.529175</ele>
                <time>2008-10-19T03:05:38Z</time>
            </trkpt>
            <trkpt lon="100.984512" lat="12.933645">
                <ele>53.490479</ele>
                <time>2008-10-19T03:05:50Z</time>
            </trkpt>
            <trkpt lon="100.984518" lat="12.933703">
                <ele>52.529175</ele>
                <time>2008-10-19T03:05:57Z</time>
            </trkpt>
            <trkpt lon="100.984528" lat="12.933763">
                <ele>50.606567</ele>
                <time>2008-10-19T03:06:09Z</time>
            </trkpt>
            <trkpt lon="100.984561" lat="12.933790">
                <ele>49.645264</ele>
                <time>2008-10-19T03:06:26Z</time>
            </trkpt>
            <trkpt lon="100.984569" lat="12.933786">
                <ele>49.645264</ele>
                <time>2008-10-19T03:06:34Z</time>
            </trkpt>
            <trkpt lon="100.984652" lat="12.933746">
                <ele>51.567871</ele>
                <time>2008-10-19T03:06:46Z</time>
            </trkpt>
            <trkpt lon="100.984767" lat="12.933727">
                <ele>52.048584</ele>
                <time>2008-10-19T03:07:03Z</time>
            </trkpt>
            <trkpt lon="100.984774" lat="12.933730">
                <ele>52.048584</ele>
                <time>2008-10-19T03:07:04Z</time>
            </trkpt>
            <trkpt lon="100.984842" lat="12.933792">
                <ele>52.048584</ele>
                <time>2008-10-19T03:07:13Z</time>
            </trkpt>
            <trkpt lon="100.984836" lat="12.933835">
                <ele>52.048584</ele>
                <time>2008-10-19T03:07:17Z</time>
            </trkpt>
            <trkpt lon="100.984804" lat="12.934170">
                <ele>52.048584</ele>
                <time>2008-10-19T03:07:31Z</time>
            </trkpt>
            <trkpt lon="100.984894" lat="12.934384">
                <ele>52.529175</ele>
                <time>2008-10-19T03:07:41Z</time>
            </trkpt>
            <trkpt lon="100.984932" lat="12.934792">
                <ele>54.932373</ele>
                <time>2008-10-19T03:07:58Z</time>
            </trkpt>
            <trkpt lon="100.984828" lat="12.935208">
                <ele>56.374512</ele>
                <time>2008-10-19T03:08:15Z</time>
            </trkpt>
            <trkpt lon="100.984817" lat="12.935241">
                <ele>56.855103</ele>
                <time>2008-10-19T03:08:16Z</time>
            </trkpt>
            <trkpt lon="100.984623" lat="12.935564">
                <ele>56.374512</ele>
                <time>2008-10-19T03:08:29Z</time>
            </trkpt>
            <trkpt lon="100.984436" lat="12.936114">
                <ele>56.374512</ele>
                <time>2008-10-19T03:08:44Z</time>
            </trkpt>
            <trkpt lon="100.984435" lat="12.936312">
                <ele>55.893799</ele>
                <time>2008-10-19T03:08:52Z</time>
            </trkpt>
            <trkpt lon="100.984733" lat="12.936361">
                <ele>55.413086</ele>
                <time>2008-10-19T03:09:02Z</time>
            </trkpt>
            <trkpt lon="100.985367" lat="12.936215">
                <ele>54.451782</ele>
                <time>2008-10-19T03:09:18Z</time>
            </trkpt>
            <trkpt lon="100.986883" lat="12.936988">
                <ele>55.413086</ele>
                <time>2008-10-19T03:19:14Z</time>
            </trkpt>
            <trkpt lon="100.986908" lat="12.937042">
                <ele>55.893799</ele>
                <time>2008-10-19T03:19:22Z</time>
            </trkpt>
            <trkpt lon="100.986921" lat="12.937040">
                <ele>55.413086</ele>
                <time>2008-10-19T03:19:25Z</time>
            </trkpt>
            <trkpt lon="100.986973" lat="12.937052">
                <ele>55.413086</ele>
                <time>2008-10-19T03:19:29Z</time>
            </trkpt>
            <trkpt lon="100.987320" lat="12.937030">
                <ele>54.932373</ele>
                <time>2008-10-19T03:19:43Z</time>
            </trkpt>
            <trkpt lon="100.987555" lat="12.937033">
                <ele>55.413086</ele>
                <time>2008-10-19T03:19:51Z</time>
            </trkpt>
            <trkpt lon="100.987622" lat="12.937333">
                <ele>55.893799</ele>
                <time>2008-10-19T03:20:02Z</time>
            </trkpt>
            <trkpt lon="100.987679" lat="12.937812">
                <ele>53.971191</ele>
                <time>2008-10-19T03:20:17Z</time>
            </trkpt>
            <trkpt lon="100.987924" lat="12.938191">
                <ele>53.971191</ele>
                <time>2008-10-19T03:20:32Z</time>
            </trkpt>
            <trkpt lon="100.988278" lat="12.938372">
                <ele>54.932373</ele>
                <time>2008-10-19T03:20:46Z</time>
            </trkpt>
            <trkpt lon="100.988300" lat="12.938419">
                <ele>55.413086</ele>
                <time>2008-10-19T03:20:49Z</time>
            </trkpt>
            <trkpt lon="100.988689" lat="12.938595">
                <ele>55.893799</ele>
                <time>2008-10-19T03:21:03Z</time>
            </trkpt>
            <trkpt lon="100.989154" lat="12.938921">
                <ele>57.816528</ele>
                <time>2008-10-19T03:21:20Z</time>
            </trkpt>
            <trkpt lon="100.989779" lat="12.939319">
                <ele>59.258423</ele>
                <time>2008-10-19T03:21:40Z</time>
            </trkpt>
            <trkpt lon="100.989837" lat="12.939400">
                <ele>58.777710</ele>
                <time>2008-10-19T03:21:43Z</time>
            </trkpt>
            <trkpt lon="100.989699" lat="12.939698">
                <ele>57.335815</ele>
                <time>2008-10-19T03:21:51Z</time>
            </trkpt>
            <trkpt lon="100.989412" lat="12.940516">
                <ele>56.374512</ele>
                <time>2008-10-19T03:22:08Z</time>
            </trkpt>
            <trkpt lon="100.989227" lat="12.940841">
                <ele>55.413086</ele>
                <time>2008-10-19T03:22:15Z</time>
            </trkpt>
            <trkpt lon="100.989198" lat="12.941052">
                <ele>55.893799</ele>
                <time>2008-10-19T03:22:19Z</time>
            </trkpt>
            <trkpt lon="100.989316" lat="12.941558">
                <ele>54.451782</ele>
                <time>2008-10-19T03:22:29Z</time>
            </trkpt>
            <trkpt lon="100.989794" lat="12.942226">
                <ele>52.048584</ele>
                <time>2008-10-19T03:22:43Z</time>
            </trkpt>
            <trkpt lon="100.990069" lat="12.942988">
                <ele>52.529175</ele>
                <time>2008-10-19T03:22:58Z</time>
            </trkpt>
            <trkpt lon="100.990172" lat="12.943567">
                <ele>54.451782</ele>
                <time>2008-10-19T03:23:15Z</time>
            </trkpt>
            <trkpt lon="100.990091" lat="12.944054">
                <ele>56.374512</ele>
                <time>2008-10-19T03:23:31Z</time>
            </trkpt>
            <trkpt lon="100.989984" lat="12.944267">
                <ele>55.893799</ele>
                <time>2008-10-19T03:23:37Z</time>
            </trkpt>
            <trkpt lon="100.989762" lat="12.944417">
                <ele>55.413086</ele>
                <time>2008-10-19T03:23:43Z</time>
            </trkpt>
            <trkpt lon="100.988779" lat="12.944618">
                <ele>54.451782</ele>
                <time>2008-10-19T03:24:01Z</time>
            </trkpt>
            <trkpt lon="100.988266" lat="12.944723">
                <ele>54.932373</ele>
                <time>2008-10-19T03:24:10Z</time>
            </trkpt>
            <trkpt lon="100.988099" lat="12.944664">
                <ele>55.413086</ele>
                <time>2008-10-19T03:24:14Z</time>
            </trkpt>
            <trkpt lon="100.987474" lat="12.944303">
                <ele>53.490479</ele>
                <time>2008-10-19T03:24:27Z</time>
            </trkpt>
            <trkpt lon="100.986752" lat="12.944264">
                <ele>53.009766</ele>
                <time>2008-10-19T03:24:39Z</time>
            </trkpt>
            <trkpt lon="100.985759" lat="12.944310">
                <ele>52.048584</ele>
                <time>2008-10-19T03:24:57Z</time>
            </trkpt>
            <trkpt lon="100.985707" lat="12.944312">
                <ele>52.048584</ele>
                <time>2008-10-19T03:24:58Z</time>
            </trkpt>
            <trkpt lon="100.985168" lat="12.944453">
                <ele>51.567871</ele>
                <time>2008-10-19T03:25:09Z</time>
            </trkpt>
            <trkpt lon="100.984155" lat="12.944587">
                <ele>51.567871</ele>
                <time>2008-10-19T03:25:31Z</time>
            </trkpt>
            <trkpt lon="100.983501" lat="12.944843">
                <ele>53.490479</ele>
                <time>2008-10-19T03:25:49Z</time>
            </trkpt>
            <trkpt lon="100.983116" lat="12.945347">
                <ele>54.451782</ele>
                <time>2008-10-19T03:26:08Z</time>
            </trkpt>
            <trkpt lon="100.982726" lat="12.945860">
                <ele>53.971191</ele>
                <time>2008-10-19T03:26:26Z</time>
            </trkpt>
            <trkpt lon="100.982379" lat="12.946442">
                <ele>53.490479</ele>
                <time>2008-10-19T03:26:42Z</time>
            </trkpt>
            <trkpt lon="100.982133" lat="12.946526">
                <ele>54.932373</ele>
                <time>2008-10-19T03:26:49Z</time>
            </trkpt>
            <trkpt lon="100.981268" lat="12.946261">
                <ele>53.971191</ele>
                <time>2008-10-19T03:27:05Z</time>
            </trkpt>
            <trkpt lon="100.980992" lat="12.946170">
                <ele>53.971191</ele>
                <time>2008-10-19T03:27:10Z</time>
            </trkpt>
            <trkpt lon="100.980679" lat="12.946171">
                <ele>53.009766</ele>
                <time>2008-10-19T03:27:16Z</time>
            </trkpt>
            <trkpt lon="100.979854" lat="12.946551">
                <ele>50.125977</ele>
                <time>2008-10-19T03:27:33Z</time>
            </trkpt>
            <trkpt lon="100.979634" lat="12.946675">
                <ele>49.645264</ele>
                <time>2008-10-19T03:27:38Z</time>
            </trkpt>
            <trkpt lon="100.979541" lat="12.946700">
                <ele>49.645264</ele>
                <time>2008-10-19T03:27:40Z</time>
            </trkpt>
            <trkpt lon="100.979133" lat="12.946679">
                <ele>48.683960</ele>
                <time>2008-10-19T03:27:48Z</time>
            </trkpt>
            <trkpt lon="100.978891" lat="12.946743">
                <ele>48.203369</ele>
                <time>2008-10-19T03:27:54Z</time>
            </trkpt>
            <trkpt lon="100.978711" lat="12.946795">
                <ele>47.241821</ele>
                <time>2008-10-19T03:28:05Z</time>
            </trkpt>
            <trkpt lon="100.978543" lat="12.946843">
                <ele>46.761231</ele>
                <time>2008-10-19T03:28:14Z</time>
            </trkpt>
            <trkpt lon="100.978548" lat="12.946853">
                <ele>49.645264</ele>
                <time>2008-10-19T03:28:33Z</time>
            </trkpt>
            <trkpt lon="100.978230" lat="12.947050">
                <ele>47.722534</ele>
                <time>2008-10-19T03:28:44Z</time>
            </trkpt>
            <trkpt lon="100.977513" lat="12.947643">
                <ele>45.319214</ele>
                <time>2008-10-19T03:29:02Z</time>
            </trkpt>
            <trkpt lon="100.977252" lat="12.947895">
                <ele>44.358032</ele>
                <time>2008-10-19T03:29:09Z</time>
            </trkpt>
            <trkpt lon="100.976728" lat="12.948159">
                <ele>43.396606</ele>
                <time>2008-10-19T03:29:20Z</time>
            </trkpt>
            <trkpt lon="100.976538" lat="12.948374">
                <ele>42.916016</ele>
                <time>2008-10-19T03:29:26Z</time>
            </trkpt>
            <trkpt lon="100.976090" lat="12.949209">
                <ele>43.396606</ele>
                <time>2008-10-19T03:29:46Z</time>
            </trkpt>
            <trkpt lon="100.975690" lat="12.949459">
                <ele>41.954712</ele>
                <time>2008-10-19T03:29:55Z</time>
            </trkpt>
            <trkpt lon="100.975489" lat="12.949315">
                <ele>41.473999</ele>
                <time>2008-10-19T03:30:02Z</time>
            </trkpt>
            <trkpt lon="100.975447" lat="12.949132">
                <ele>41.954712</ele>
                <time>2008-10-19T03:30:06Z</time>
            </trkpt>
            <trkpt lon="100.975410" lat="12.949055">
                <ele>42.435425</ele>
                <time>2008-10-19T03:30:08Z</time>
            </trkpt>
            <trkpt lon="100.975284" lat="12.948928">
                <ele>42.435425</ele>
                <time>2008-10-19T03:30:12Z</time>
            </trkpt>
            <trkpt lon="100.975969" lat="12.949832">
                <ele>43.396606</ele>
                <time>2008-10-19T03:33:04Z</time>
            </trkpt>
            <trkpt lon="100.976222" lat="12.950062">
                <ele>42.916016</ele>
                <time>2008-10-19T03:33:13Z</time>
            </trkpt>
            <trkpt lon="100.976910" lat="12.950378">
                <ele>40.993408</ele>
                <time>2008-10-19T03:33:29Z</time>
            </trkpt>
            <trkpt lon="100.977678" lat="12.950709">
                <ele>41.954712</ele>
                <time>2008-10-19T03:33:47Z</time>
            </trkpt>
            <trkpt lon="100.977980" lat="12.951018">
                <ele>41.954712</ele>
                <time>2008-10-19T03:33:58Z</time>
            </trkpt>
            <trkpt lon="100.978281" lat="12.951218">
                <ele>41.954712</ele>
                <time>2008-10-19T03:34:08Z</time>
            </trkpt>
            <trkpt lon="100.978439" lat="12.951794">
                <ele>42.435425</ele>
                <time>2008-10-19T03:34:24Z</time>
            </trkpt>
            <trkpt lon="100.978860" lat="12.952119">
                <ele>45.319214</ele>
                <time>2008-10-19T03:34:38Z</time>
            </trkpt>
            <trkpt lon="100.979022" lat="12.952166">
                <ele>45.799927</ele>
                <time>2008-10-19T03:34:42Z</time>
            </trkpt>
            <trkpt lon="100.979319" lat="12.952278">
                <ele>45.799927</ele>
                <time>2008-10-19T03:34:51Z</time>
            </trkpt>
            <trkpt lon="100.979393" lat="12.952245">
                <ele>45.319214</ele>
                <time>2008-10-19T03:34:55Z</time>
            </trkpt>
            <trkpt lon="100.979417" lat="12.952198">
                <ele>45.319214</ele>
                <time>2008-10-19T03:34:58Z</time>
            </trkpt>
            <trkpt lon="100.979377" lat="12.952366">
                <ele>45.319214</ele>
                <time>2008-10-19T03:35:07Z</time>
            </trkpt>
            <trkpt lon="100.979408" lat="12.952469">
                <ele>45.799927</ele>
                <time>2008-10-19T03:35:10Z</time>
            </trkpt>
            <trkpt lon="100.979637" lat="12.952683">
                <ele>45.799927</ele>
                <time>2008-10-19T03:35:23Z</time>
            </trkpt>
            <trkpt lon="100.979942" lat="12.952891">
                <ele>45.799927</ele>
                <time>2008-10-19T03:35:40Z</time>
            </trkpt>
            <trkpt lon="100.980185" lat="12.953042">
                <ele>47.722534</ele>
                <time>2008-10-19T03:35:54Z</time>
            </trkpt>
            <trkpt lon="100.980514" lat="12.953154">
                <ele>47.722534</ele>
                <time>2008-10-19T03:36:10Z</time>
            </trkpt>
            <trkpt lon="100.980878" lat="12.953302">
                <ele>47.241821</ele>
                <time>2008-10-19T03:36:27Z</time>
            </trkpt>
            <trkpt lon="100.980926" lat="12.953336">
                <ele>47.241821</ele>
                <time>2008-10-19T03:36:40Z</time>
            </trkpt>
            <trkpt lon="100.980897" lat="12.953320">
                <ele>43.396606</ele>
                <time>2008-10-19T03:41:17Z</time>
            </trkpt>
            <trkpt lon="100.980917" lat="12.953328">
                <ele>51.567871</ele>
                <time>2008-10-19T03:43:09Z</time>
            </trkpt>
            <trkpt lon="100.981073" lat="12.953306">
                <ele>50.606567</ele>
                <time>2008-10-19T03:43:17Z</time>
            </trkpt>
            <trkpt lon="100.981118" lat="12.953410">
                <ele>49.645264</ele>
                <time>2008-10-19T03:43:22Z</time>
            </trkpt>
            <trkpt lon="100.981308" lat="12.953995">
                <ele>46.761231</ele>
                <time>2008-10-19T03:43:37Z</time>
            </trkpt>
            <trkpt lon="100.981398" lat="12.954492">
                <ele>45.319214</ele>
                <time>2008-10-19T03:43:49Z</time>
            </trkpt>
            <trkpt lon="100.981351" lat="12.954602">
                <ele>45.799927</ele>
                <time>2008-10-19T03:43:52Z</time>
            </trkpt>
            <trkpt lon="100.981046" lat="12.954936">
                <ele>45.319214</ele>
                <time>2008-10-19T03:44:02Z</time>
            </trkpt>
            <trkpt lon="100.980377" lat="12.954982">
                <ele>45.799927</ele>
                <time>2008-10-19T03:44:15Z</time>
            </trkpt>
            <trkpt lon="100.979872" lat="12.955090">
                <ele>46.280640</ele>
                <time>2008-10-19T03:44:30Z</time>
            </trkpt>
            <trkpt lon="100.979805" lat="12.955271">
                <ele>46.280640</ele>
                <time>2008-10-19T03:44:36Z</time>
            </trkpt>
            <trkpt lon="100.979351" lat="12.955479">
                <ele>46.280640</ele>
                <time>2008-10-19T03:44:51Z</time>
            </trkpt>
            <trkpt lon="100.978843" lat="12.955714">
                <ele>47.241821</ele>
                <time>2008-10-19T03:45:05Z</time>
            </trkpt>
            <trkpt lon="100.978504" lat="12.955912">
                <ele>49.164551</ele>
                <time>2008-10-19T03:45:17Z</time>
            </trkpt>
            <trkpt lon="100.978139" lat="12.956246">
                <ele>50.606567</ele>
                <time>2008-10-19T03:45:33Z</time>
            </trkpt>
            <trkpt lon="100.977747" lat="12.956616">
                <ele>52.529175</ele>
                <time>2008-10-19T03:45:54Z</time>
            </trkpt>
            <trkpt lon="100.977570" lat="12.956790">
                <ele>54.932373</ele>
                <time>2008-10-19T03:46:06Z</time>
            </trkpt>
            <trkpt lon="100.977493" lat="12.956761">
                <ele>54.932373</ele>
                <time>2008-10-19T03:46:10Z</time>
            </trkpt>
            <trkpt lon="100.977142" lat="12.956432">
                <ele>54.451782</ele>
                <time>2008-10-19T03:46:23Z</time>
            </trkpt>
            <trkpt lon="100.977077" lat="12.956364">
                <ele>53.009766</ele>
                <time>2008-10-19T03:46:25Z</time>
            </trkpt>
            <trkpt lon="100.976587" lat="12.955736">
                <ele>50.606567</ele>
                <time>2008-10-19T03:46:41Z</time>
            </trkpt>
            <trkpt lon="100.976022" lat="12.955094">
                <ele>49.645264</ele>
                <time>2008-10-19T03:46:56Z</time>
            </trkpt>
            <trkpt lon="100.975860" lat="12.954953">
                <ele>50.125977</ele>
                <time>2008-10-19T03:47:00Z</time>
            </trkpt>
            <trkpt lon="100.975358" lat="12.954473">
                <ele>48.683960</ele>
                <time>2008-10-19T03:47:12Z</time>
            </trkpt>
            <trkpt lon="100.975157" lat="12.954447">
                <ele>48.683960</ele>
                <time>2008-10-19T03:47:16Z</time>
            </trkpt>
            <trkpt lon="100.974819" lat="12.954548">
                <ele>48.683960</ele>
                <time>2008-10-19T03:47:23Z</time>
            </trkpt>
            <trkpt lon="100.974204" lat="12.954693">
                <ele>49.645264</ele>
                <time>2008-10-19T03:47:38Z</time>
            </trkpt>
            <trkpt lon="100.973516" lat="12.954925">
                <ele>49.645264</ele>
                <time>2008-10-19T03:47:57Z</time>
            </trkpt>
            <trkpt lon="100.973326" lat="12.954954">
                <ele>51.087158</ele>
                <time>2008-10-19T03:48:07Z</time>
            </trkpt>
            <trkpt lon="100.973007" lat="12.954990">
                <ele>53.009766</ele>
                <time>2008-10-19T03:48:22Z</time>
            </trkpt>
            <trkpt lon="100.972838" lat="12.955156">
                <ele>52.529175</ele>
                <time>2008-10-19T03:48:34Z</time>
            </trkpt>
            <trkpt lon="100.972499" lat="12.955347">
                <ele>53.009766</ele>
                <time>2008-10-19T03:48:47Z</time>
            </trkpt>
            <trkpt lon="100.972023" lat="12.955623">
                <ele>53.971191</ele>
                <time>2008-10-19T03:49:01Z</time>
            </trkpt>
            <trkpt lon="100.971257" lat="12.956080">
                <ele>53.971191</ele>
                <time>2008-10-19T03:49:22Z</time>
            </trkpt>
            <trkpt lon="100.970782" lat="12.956308">
                <ele>53.009766</ele>
                <time>2008-10-19T03:49:36Z</time>
            </trkpt>
            <trkpt lon="100.970125" lat="12.956738">
                <ele>52.529175</ele>
                <time>2008-10-19T03:49:55Z</time>
            </trkpt>
            <trkpt lon="100.969458" lat="12.957136">
                <ele>52.048584</ele>
                <time>2008-10-19T03:50:15Z</time>
            </trkpt>
            <trkpt lon="100.968608" lat="12.957641">
                <ele>51.567871</ele>
                <time>2008-10-19T03:50:40Z</time>
            </trkpt>
            <trkpt lon="100.968328" lat="12.957782">
                <ele>51.567871</ele>
                <time>2008-10-19T03:50:51Z</time>
            </trkpt>
            <trkpt lon="100.967731" lat="12.958154">
                <ele>50.606567</ele>
                <time>2008-10-19T03:51:10Z</time>
            </trkpt>
            <trkpt lon="100.967271" lat="12.958426">
                <ele>50.606567</ele>
                <time>2008-10-19T03:51:27Z</time>
            </trkpt>
            <trkpt lon="100.966927" lat="12.958622">
                <ele>50.606567</ele>
                <time>2008-10-19T03:51:40Z</time>
            </trkpt>
            <trkpt lon="100.966566" lat="12.958880">
                <ele>50.125977</ele>
                <time>2008-10-19T03:51:55Z</time>
            </trkpt>
            <trkpt lon="100.966526" lat="12.958900">
                <ele>50.125977</ele>
                <time>2008-10-19T03:51:56Z</time>
            </trkpt>
            <trkpt lon="100.966445" lat="12.958932">
                <ele>50.125977</ele>
                <time>2008-10-19T03:51:58Z</time>
            </trkpt>
            <trkpt lon="100.965992" lat="12.959226">
                <ele>50.125977</ele>
                <time>2008-10-19T03:52:13Z</time>
            </trkpt>
            <trkpt lon="100.965648" lat="12.959451">
                <ele>50.125977</ele>
                <time>2008-10-19T03:52:25Z</time>
            </trkpt>
            <trkpt lon="100.964935" lat="12.959891">
                <ele>50.606567</ele>
                <time>2008-10-19T03:52:47Z</time>
            </trkpt>
            <trkpt lon="100.964600" lat="12.960161">
                <ele>50.606567</ele>
                <time>2008-10-19T03:53:02Z</time>
            </trkpt>
            <trkpt lon="100.964835" lat="12.960431">
                <ele>48.683960</ele>
                <time>2008-10-19T03:53:12Z</time>
            </trkpt>
            <trkpt lon="100.965473" lat="12.961051">
                <ele>45.799927</ele>
                <time>2008-10-19T03:53:34Z</time>
            </trkpt>
            <trkpt lon="100.965589" lat="12.961160">
                <ele>45.799927</ele>
                <time>2008-10-19T03:53:38Z</time>
            </trkpt>
            <trkpt lon="100.966007" lat="12.961592">
                <ele>43.396606</ele>
                <time>2008-10-19T03:53:56Z</time>
            </trkpt>
            <trkpt lon="100.966356" lat="12.961949">
                <ele>41.473999</ele>
                <time>2008-10-19T03:54:11Z</time>
            </trkpt>
            <trkpt lon="100.966479" lat="12.962058">
                <ele>41.473999</ele>
                <time>2008-10-19T03:54:23Z</time>
            </trkpt>
            <trkpt lon="100.966463" lat="12.962102">
                <ele>40.993408</ele>
                <time>2008-10-19T03:54:38Z</time>
            </trkpt>
            <trkpt lon="100.966393" lat="12.962164">
                <ele>40.993408</ele>
                <time>2008-10-19T03:54:57Z</time>
            </trkpt>
            <trkpt lon="100.966406" lat="12.962254">
                <ele>39.551269</ele>
                <time>2008-10-19T03:55:12Z</time>
            </trkpt>
            <trkpt lon="100.966190" lat="12.962437">
                <ele>39.070679</ele>
                <time>2008-10-19T03:55:24Z</time>
            </trkpt>
            <trkpt lon="100.965794" lat="12.962661">
                <ele>38.590088</ele>
                <time>2008-10-19T03:55:39Z</time>
            </trkpt>
            <trkpt lon="100.965389" lat="12.962828">
                <ele>38.590088</ele>
                <time>2008-10-19T03:55:54Z</time>
            </trkpt>
            <trkpt lon="100.964972" lat="12.963029">
                <ele>38.590088</ele>
                <time>2008-10-19T03:56:10Z</time>
            </trkpt>
            <trkpt lon="100.964361" lat="12.963380">
                <ele>38.109375</ele>
                <time>2008-10-19T03:56:28Z</time>
            </trkpt>
            <trkpt lon="100.963912" lat="12.963548">
                <ele>38.109375</ele>
                <time>2008-10-19T03:56:43Z</time>
            </trkpt>
            <trkpt lon="100.963402" lat="12.963600">
                <ele>38.590088</ele>
                <time>2008-10-19T03:56:58Z</time>
            </trkpt>
            <trkpt lon="100.962876" lat="12.963679">
                <ele>39.551269</ele>
                <time>2008-10-19T03:57:12Z</time>
            </trkpt>
            <trkpt lon="100.962593" lat="12.963737">
                <ele>40.032105</ele>
                <time>2008-10-19T03:57:19Z</time>
            </trkpt>
            <trkpt lon="100.962049" lat="12.963898">
                <ele>39.551269</ele>
                <time>2008-10-19T03:57:34Z</time>
            </trkpt>
            <trkpt lon="100.961967" lat="12.963925">
                <ele>39.070679</ele>
                <time>2008-10-19T03:57:37Z</time>
            </trkpt>
            <trkpt lon="100.962042" lat="12.964096">
                <ele>38.109375</ele>
                <time>2008-10-19T03:57:46Z</time>
            </trkpt>
            <trkpt lon="100.962250" lat="12.964245">
                <ele>37.628662</ele>
                <time>2008-10-19T03:58:04Z</time>
            </trkpt>
            <trkpt lon="100.962387" lat="12.964363">
                <ele>38.109375</ele>
                <time>2008-10-19T03:58:22Z</time>
            </trkpt>
            <trkpt lon="100.962446" lat="12.964435">
                <ele>38.590088</ele>
                <time>2008-10-19T03:58:36Z</time>
            </trkpt>
            <trkpt lon="100.962387" lat="12.964468">
                <ele>39.070679</ele>
                <time>2008-10-19T03:58:49Z</time>
            </trkpt>
            <trkpt lon="100.962303" lat="12.964472">
                <ele>39.070679</ele>
                <time>2008-10-19T03:58:55Z</time>
            </trkpt>
            <trkpt lon="100.962229" lat="12.964529">
                <ele>39.070679</ele>
                <time>2008-10-19T03:58:59Z</time>
            </trkpt>
            <trkpt lon="100.961706" lat="12.964846">
                <ele>39.551269</ele>
                <time>2008-10-19T03:59:17Z</time>
            </trkpt>
            <trkpt lon="100.961132" lat="12.965183">
                <ele>37.628662</ele>
                <time>2008-10-19T03:59:35Z</time>
            </trkpt>
            <trkpt lon="100.960786" lat="12.965449">
                <ele>37.628662</ele>
                <time>2008-10-19T03:59:49Z</time>
            </trkpt>
            <trkpt lon="100.960680" lat="12.965532">
                <ele>37.628662</ele>
                <time>2008-10-19T04:00:01Z</time>
            </trkpt>
            <trkpt lon="100.960701" lat="12.965565">
                <ele>37.628662</ele>
                <time>2008-10-19T04:00:11Z</time>
            </trkpt>
            <trkpt lon="100.960706" lat="12.965683">
                <ele>38.109375</ele>
                <time>2008-10-19T04:00:25Z</time>
            </trkpt>
            <trkpt lon="100.960702" lat="12.965727">
                <ele>38.590088</ele>
                <time>2008-10-19T04:00:32Z</time>
            </trkpt>
            <trkpt lon="100.960707" lat="12.965799">
                <ele>38.590088</ele>
                <time>2008-10-19T04:00:38Z</time>
            </trkpt>
            <trkpt lon="100.960707" lat="12.965848">
                <ele>38.109375</ele>
                <time>2008-10-19T04:00:43Z</time>
            </trkpt>
            <trkpt lon="100.960777" lat="12.966041">
                <ele>37.148071</ele>
                <time>2008-10-19T04:01:00Z</time>
            </trkpt>
            <trkpt lon="100.960809" lat="12.966179">
                <ele>36.667481</ele>
                <time>2008-10-19T04:01:13Z</time>
            </trkpt>
            <trkpt lon="100.960842" lat="12.966254">
                <ele>37.148071</ele>
                <time>2008-10-19T04:01:20Z</time>
            </trkpt>
            <trkpt lon="100.960834" lat="12.966328">
                <ele>36.667481</ele>
                <time>2008-10-19T04:01:25Z</time>
            </trkpt>
            <trkpt lon="100.960869" lat="12.966562">
                <ele>35.225464</ele>
                <time>2008-10-19T04:01:33Z</time>
            </trkpt>
            <trkpt lon="100.960786" lat="12.966632">
                <ele>34.264160</ele>
                <time>2008-10-19T04:01:38Z</time>
            </trkpt>
            <trkpt lon="100.960431" lat="12.966689">
                <ele>33.783447</ele>
                <time>2008-10-19T04:01:51Z</time>
            </trkpt>
            <trkpt lon="100.960422" lat="12.966805">
                <ele>34.264160</ele>
                <time>2008-10-19T04:01:57Z</time>
            </trkpt>
            <trkpt lon="100.960435" lat="12.967002">
                <ele>33.302856</ele>
                <time>2008-10-19T04:02:03Z</time>
            </trkpt>
            <trkpt lon="100.960486" lat="12.967531">
                <ele>31.380127</ele>
                <time>2008-10-19T04:02:17Z</time>
            </trkpt>
            <trkpt lon="100.960738" lat="12.967989">
                <ele>28.015503</ele>
                <time>2008-10-19T04:02:28Z</time>
            </trkpt>
            <trkpt lon="100.960631" lat="12.968218">
                <ele>26.573608</ele>
                <time>2008-10-19T04:02:35Z</time>
            </trkpt>
            <trkpt lon="100.960021" lat="12.968594">
                <ele>25.131714</ele>
                <time>2008-10-19T04:02:50Z</time>
            </trkpt>
            <trkpt lon="100.959886" lat="12.968754">
                <ele>24.651001</ele>
                <time>2008-10-19T04:02:54Z</time>
            </trkpt>
            <trkpt lon="100.959819" lat="12.969011">
                <ele>23.689575</ele>
                <time>2008-10-19T04:02:59Z</time>
            </trkpt>
            <trkpt lon="100.959815" lat="12.969115">
                <ele>23.208984</ele>
                <time>2008-10-19T04:03:01Z</time>
            </trkpt>
            <trkpt lon="100.959851" lat="12.969665">
                <ele>22.247559</ele>
                <time>2008-10-19T04:03:12Z</time>
            </trkpt>
            <trkpt lon="100.959594" lat="12.970434">
                <ele>23.689575</ele>
                <time>2008-10-19T04:03:30Z</time>
            </trkpt>
            <trkpt lon="100.959491" lat="12.970646">
                <ele>24.170288</ele>
                <time>2008-10-19T04:03:36Z</time>
            </trkpt>
            <trkpt lon="100.959307" lat="12.970649">
                <ele>24.170288</ele>
                <time>2008-10-19T04:03:41Z</time>
            </trkpt>
            <trkpt lon="100.958834" lat="12.970851">
                <ele>25.131714</ele>
                <time>2008-10-19T04:03:55Z</time>
            </trkpt>
            <trkpt lon="100.958433" lat="12.971771">
                <ele>24.170288</ele>
                <time>2008-10-19T04:04:18Z</time>
            </trkpt>
            <trkpt lon="100.957976" lat="12.972661">
                <ele>23.689575</ele>
                <time>2008-10-19T04:04:40Z</time>
            </trkpt>
            <trkpt lon="100.957868" lat="12.972861">
                <ele>24.170288</ele>
                <time>2008-10-19T04:04:45Z</time>
            </trkpt>
            <trkpt lon="100.957595" lat="12.973671">
                <ele>24.651001</ele>
                <time>2008-10-19T04:05:02Z</time>
            </trkpt>
            <trkpt lon="100.957501" lat="12.974142">
                <ele>25.612305</ele>
                <time>2008-10-19T04:05:18Z</time>
            </trkpt>
            <trkpt lon="100.957498" lat="12.974158">
                <ele>26.573608</ele>
                <time>2008-10-19T04:05:33Z</time>
            </trkpt>
            <trkpt lon="100.957518" lat="12.974143">
                <ele>26.092896</ele>
                <time>2008-10-19T04:05:37Z</time>
            </trkpt>
            <trkpt lon="100.957584" lat="12.974109">
                <ele>25.612305</ele>
                <time>2008-10-19T04:05:54Z</time>
            </trkpt>
            <trkpt lon="100.957568" lat="12.974124">
                <ele>25.612305</ele>
                <time>2008-10-19T04:20:44Z</time>
            </trkpt>
            <trkpt lon="100.957535" lat="12.974135">
                <ele>25.612305</ele>
                <time>2008-10-19T04:20:49Z</time>
            </trkpt>
            <trkpt lon="100.957437" lat="12.974113">
                <ele>25.612305</ele>
                <time>2008-10-19T04:20:55Z</time>
            </trkpt>
            <trkpt lon="100.956999" lat="12.974013">
                <ele>25.612305</ele>
                <time>2008-10-19T04:21:10Z</time>
            </trkpt>
            <trkpt lon="100.956706" lat="12.973897">
                <ele>25.612305</ele>
                <time>2008-10-19T04:21:18Z</time>
            </trkpt>
            <trkpt lon="100.956633" lat="12.973849">
                <ele>25.612305</ele>
                <time>2008-10-19T04:21:20Z</time>
            </trkpt>
            <trkpt lon="100.956191" lat="12.973591">
                <ele>26.092896</ele>
                <time>2008-10-19T04:21:31Z</time>
            </trkpt>
            <trkpt lon="100.955715" lat="12.973126">
                <ele>26.573608</ele>
                <time>2008-10-19T04:21:46Z</time>
            </trkpt>
            <trkpt lon="100.955850" lat="12.972826">
                <ele>25.612305</ele>
                <time>2008-10-19T04:21:54Z</time>
            </trkpt>
            <trkpt lon="100.956059" lat="12.972619">
                <ele>25.612305</ele>
                <time>2008-10-19T04:22:00Z</time>
            </trkpt>
            <trkpt lon="100.956382" lat="12.972231">
                <ele>25.131714</ele>
                <time>2008-10-19T04:22:13Z</time>
            </trkpt>
            <trkpt lon="100.956497" lat="12.972057">
                <ele>25.612305</ele>
                <time>2008-10-19T04:22:19Z</time>
            </trkpt>
            <trkpt lon="100.956752" lat="12.971810">
                <ele>26.092896</ele>
                <time>2008-10-19T04:22:27Z</time>
            </trkpt>
            <trkpt lon="100.957109" lat="12.971421">
                <ele>26.573608</ele>
                <time>2008-10-19T04:22:39Z</time>
            </trkpt>
            <trkpt lon="100.957047" lat="12.971365">
                <ele>26.573608</ele>
                <time>2008-10-19T04:22:43Z</time>
            </trkpt>
            <trkpt lon="100.956906" lat="12.971022">
                <ele>25.612305</ele>
                <time>2008-10-19T04:22:53Z</time>
            </trkpt>
            <trkpt lon="100.956808" lat="12.970871">
                <ele>26.092896</ele>
                <time>2008-10-19T04:22:57Z</time>
            </trkpt>
            <trkpt lon="100.956619" lat="12.970744">
                <ele>25.612305</ele>
                <time>2008-10-19T04:23:02Z</time>
            </trkpt>
            <trkpt lon="100.956445" lat="12.970714">
                <ele>25.612305</ele>
                <time>2008-10-19T04:23:06Z</time>
            </trkpt>
            <trkpt lon="100.956121" lat="12.970710">
                <ele>25.612305</ele>
                <time>2008-10-19T04:23:13Z</time>
            </trkpt>
            <trkpt lon="100.956027" lat="12.970533">
                <ele>24.651001</ele>
                <time>2008-10-19T04:23:20Z</time>
            </trkpt>
            <trkpt lon="100.956043" lat="12.970494">
                <ele>24.651001</ele>
                <time>2008-10-19T04:23:21Z</time>
            </trkpt>
            <trkpt lon="100.956125" lat="12.970232">
                <ele>23.689575</ele>
                <time>2008-10-19T04:23:27Z</time>
            </trkpt>
            <trkpt lon="100.956593" lat="12.969440">
                <ele>26.092896</ele>
                <time>2008-10-19T04:23:48Z</time>
            </trkpt>
            <trkpt lon="100.956398" lat="12.969127">
                <ele>27.534912</ele>
                <time>2008-10-19T04:23:58Z</time>
            </trkpt>
            <trkpt lon="100.955819" lat="12.968406">
                <ele>29.938110</ele>
                <time>2008-10-19T04:24:21Z</time>
            </trkpt>
            <trkpt lon="100.955294" lat="12.967860">
                <ele>29.938110</ele>
                <time>2008-10-19T04:24:38Z</time>
            </trkpt>
            <trkpt lon="100.954658" lat="12.967497">
                <ele>29.457520</ele>
                <time>2008-10-19T04:24:54Z</time>
            </trkpt>
            <trkpt lon="100.954453" lat="12.967466">
                <ele>29.457520</ele>
                <time>2008-10-19T04:24:58Z</time>
            </trkpt>
            <trkpt lon="100.954276" lat="12.967356">
                <ele>28.976929</ele>
                <time>2008-10-19T04:25:02Z</time>
            </trkpt>
            <trkpt lon="100.954064" lat="12.967185">
                <ele>28.976929</ele>
                <time>2008-10-19T04:25:09Z</time>
            </trkpt>
            <trkpt lon="100.954051" lat="12.967023">
                <ele>28.976929</ele>
                <time>2008-10-19T04:25:13Z</time>
            </trkpt>
            <trkpt lon="100.954119" lat="12.966357">
                <ele>27.534912</ele>
                <time>2008-10-19T04:25:30Z</time>
            </trkpt>
            <trkpt lon="100.954401" lat="12.965825">
                <ele>27.054321</ele>
                <time>2008-10-19T04:25:48Z</time>
            </trkpt>
            <trkpt lon="100.954170" lat="12.965283">
                <ele>26.573608</ele>
                <time>2008-10-19T04:26:03Z</time>
            </trkpt>
            <trkpt lon="100.953964" lat="12.964586">
                <ele>24.651001</ele>
                <time>2008-10-19T04:26:20Z</time>
            </trkpt>
            <trkpt lon="100.954099" lat="12.964256">
                <ele>25.612305</ele>
                <time>2008-10-19T04:26:30Z</time>
            </trkpt>
            <trkpt lon="100.954232" lat="12.963878">
                <ele>24.170288</ele>
                <time>2008-10-19T04:26:41Z</time>
            </trkpt>
            <trkpt lon="100.954168" lat="12.963483">
                <ele>25.131714</ele>
                <time>2008-10-19T04:26:56Z</time>
            </trkpt>
            <trkpt lon="100.954005" lat="12.963154">
                <ele>26.573608</ele>
                <time>2008-10-19T04:27:13Z</time>
            </trkpt>
            <trkpt lon="100.953734" lat="12.962806">
                <ele>26.092896</ele>
                <time>2008-10-19T04:27:32Z</time>
            </trkpt>
            <trkpt lon="100.953674" lat="12.962719">
                <ele>26.573608</ele>
                <time>2008-10-19T04:27:39Z</time>
            </trkpt>
            <trkpt lon="100.953583" lat="12.962725">
                <ele>26.573608</ele>
                <time>2008-10-19T04:27:45Z</time>
            </trkpt>
            <trkpt lon="100.953239" lat="12.962895">
                <ele>26.092896</ele>
                <time>2008-10-19T04:28:01Z</time>
            </trkpt>
            <trkpt lon="100.952806" lat="12.962814">
                <ele>27.054321</ele>
                <time>2008-10-19T04:28:16Z</time>
            </trkpt>
            <trkpt lon="100.952442" lat="12.962346">
                <ele>28.976929</ele>
                <time>2008-10-19T04:28:33Z</time>
            </trkpt>
            <trkpt lon="100.952451" lat="12.961808">
                <ele>30.418823</ele>
                <time>2008-10-19T04:28:49Z</time>
            </trkpt>
            <trkpt lon="100.952480" lat="12.961595">
                <ele>31.380127</ele>
                <time>2008-10-19T04:29:02Z</time>
            </trkpt>
            <trkpt lon="100.952626" lat="12.961214">
                <ele>29.938110</ele>
                <time>2008-10-19T04:29:17Z</time>
            </trkpt>
            <trkpt lon="100.952687" lat="12.961018">
                <ele>28.015503</ele>
                <time>2008-10-19T04:29:31Z</time>
            </trkpt>
            <trkpt lon="100.952704" lat="12.960944">
                <ele>27.534912</ele>
                <time>2008-10-19T04:29:42Z</time>
            </trkpt>
            <trkpt lon="100.952705" lat="12.960873">
                <ele>28.976929</ele>
                <time>2008-10-19T04:29:49Z</time>
            </trkpt>
            <trkpt lon="100.952693" lat="12.960695">
                <ele>29.938110</ele>
                <time>2008-10-19T04:30:07Z</time>
            </trkpt>
            <trkpt lon="100.952695" lat="12.960607">
                <ele>30.418823</ele>
                <time>2008-10-19T04:30:15Z</time>
            </trkpt>
            <trkpt lon="100.952690" lat="12.960555">
                <ele>30.418823</ele>
                <time>2008-10-19T04:30:19Z</time>
            </trkpt>
            <trkpt lon="100.952690" lat="12.960491">
                <ele>30.899536</ele>
                <time>2008-10-19T04:30:25Z</time>
            </trkpt>
            <trkpt lon="100.952687" lat="12.960334">
                <ele>29.938110</ele>
                <time>2008-10-19T04:30:39Z</time>
            </trkpt>
            <trkpt lon="100.952697" lat="12.959898">
                <ele>28.015503</ele>
                <time>2008-10-19T04:30:56Z</time>
            </trkpt>
            <trkpt lon="100.952747" lat="12.959348">
                <ele>30.418823</ele>
                <time>2008-10-19T04:31:14Z</time>
            </trkpt>
            <trkpt lon="100.952774" lat="12.959299">
                <ele>30.418823</ele>
                <time>2008-10-19T04:31:16Z</time>
            </trkpt>
            <trkpt lon="100.953240" lat="12.958887">
                <ele>30.418823</ele>
                <time>2008-10-19T04:31:33Z</time>
            </trkpt>
            <trkpt lon="100.953310" lat="12.958781">
                <ele>29.938110</ele>
                <time>2008-10-19T04:31:43Z</time>
            </trkpt>
            <trkpt lon="100.953325" lat="12.958753">
                <ele>30.418823</ele>
                <time>2008-10-19T04:31:46Z</time>
            </trkpt>
            <trkpt lon="100.953422" lat="12.958559">
                <ele>30.418823</ele>
                <time>2008-10-19T04:32:03Z</time>
            </trkpt>
            <trkpt lon="100.953604" lat="12.958146">
                <ele>29.938110</ele>
                <time>2008-10-19T04:32:20Z</time>
            </trkpt>
            <trkpt lon="100.953813" lat="12.957919">
                <ele>30.418823</ele>
                <time>2008-10-19T04:32:35Z</time>
            </trkpt>
            <trkpt lon="100.953860" lat="12.957876">
                <ele>30.899536</ele>
                <time>2008-10-19T04:32:38Z</time>
            </trkpt>
            <trkpt lon="100.953960" lat="12.957542">
                <ele>31.380127</ele>
                <time>2008-10-19T04:32:54Z</time>
            </trkpt>
            <trkpt lon="100.954033" lat="12.957116">
                <ele>30.899536</ele>
                <time>2008-10-19T04:33:11Z</time>
            </trkpt>
            <trkpt lon="100.954124" lat="12.956579">
                <ele>31.380127</ele>
                <time>2008-10-19T04:33:31Z</time>
            </trkpt>
            <trkpt lon="100.954254" lat="12.956126">
                <ele>32.341553</ele>
                <time>2008-10-19T04:33:46Z</time>
            </trkpt>
            <trkpt lon="100.954467" lat="12.955464">
                <ele>32.341553</ele>
                <time>2008-10-19T04:34:04Z</time>
            </trkpt>
            <trkpt lon="100.954735" lat="12.954595">
                <ele>32.822266</ele>
                <time>2008-10-19T04:34:27Z</time>
            </trkpt>
            <trkpt lon="100.955006" lat="12.953799">
                <ele>33.302856</ele>
                <time>2008-10-19T04:34:48Z</time>
            </trkpt>
            <trkpt lon="100.955261" lat="12.953082">
                <ele>34.264160</ele>
                <time>2008-10-19T04:35:09Z</time>
            </trkpt>
            <trkpt lon="100.955427" lat="12.952613">
                <ele>36.667481</ele>
                <time>2008-10-19T04:35:26Z</time>
            </trkpt>
            <trkpt lon="100.955503" lat="12.952363">
                <ele>37.148071</ele>
                <time>2008-10-19T04:35:42Z</time>
            </trkpt>
            <trkpt lon="100.955518" lat="12.952339">
                <ele>38.109375</ele>
                <time>2008-10-19T04:35:56Z</time>
            </trkpt>
            <trkpt lon="100.955602" lat="12.952180">
                <ele>38.109375</ele>
                <time>2008-10-19T04:36:11Z</time>
            </trkpt>
            <trkpt lon="100.955690" lat="12.951882">
                <ele>38.109375</ele>
                <time>2008-10-19T04:36:28Z</time>
            </trkpt>
            <trkpt lon="100.955829" lat="12.951517">
                <ele>39.070679</ele>
                <time>2008-10-19T04:36:48Z</time>
            </trkpt>
            <trkpt lon="100.955953" lat="12.951412">
                <ele>40.512817</ele>
                <time>2008-10-19T04:37:01Z</time>
            </trkpt>
            <trkpt lon="100.956369" lat="12.951395">
                <ele>40.512817</ele>
                <time>2008-10-19T04:37:17Z</time>
            </trkpt>
            <trkpt lon="100.956707" lat="12.951237">
                <ele>40.993408</ele>
                <time>2008-10-19T04:37:29Z</time>
            </trkpt>
            <trkpt lon="100.957055" lat="12.951037">
                <ele>41.954712</ele>
                <time>2008-10-19T04:37:43Z</time>
            </trkpt>
            <trkpt lon="100.957081" lat="12.950816">
                <ele>44.358032</ele>
                <time>2008-10-19T04:37:53Z</time>
            </trkpt>
            <trkpt lon="100.956947" lat="12.950596">
                <ele>45.319214</ele>
                <time>2008-10-19T04:38:08Z</time>
            </trkpt>
            <trkpt lon="100.956877" lat="12.950568">
                <ele>44.358032</ele>
                <time>2008-10-19T04:38:10Z</time>
            </trkpt>
            <trkpt lon="100.956408" lat="12.950421">
                <ele>44.838623</ele>
                <time>2008-10-19T04:38:24Z</time>
            </trkpt>
            <trkpt lon="100.956334" lat="12.950083">
                <ele>44.838623</ele>
                <time>2008-10-19T04:38:37Z</time>
            </trkpt>
            <trkpt lon="100.956455" lat="12.949618">
                <ele>45.799927</ele>
                <time>2008-10-19T04:38:54Z</time>
            </trkpt>
            <trkpt lon="100.956653" lat="12.949168">
                <ele>47.722534</ele>
                <time>2008-10-19T04:39:12Z</time>
            </trkpt>
            <trkpt lon="100.956964" lat="12.948718">
                <ele>48.683960</ele>
                <time>2008-10-19T04:39:29Z</time>
            </trkpt>
            <trkpt lon="100.957249" lat="12.948323">
                <ele>49.645264</ele>
                <time>2008-10-19T04:39:44Z</time>
            </trkpt>
            <trkpt lon="100.957572" lat="12.947929">
                <ele>50.125977</ele>
                <time>2008-10-19T04:40:01Z</time>
            </trkpt>
            <trkpt lon="100.957742" lat="12.947659">
                <ele>50.606567</ele>
                <time>2008-10-19T04:40:11Z</time>
            </trkpt>
            <trkpt lon="100.958019" lat="12.947262">
                <ele>51.087158</ele>
                <time>2008-10-19T04:40:26Z</time>
            </trkpt>
            <trkpt lon="100.958411" lat="12.946806">
                <ele>52.048584</ele>
                <time>2008-10-19T04:40:43Z</time>
            </trkpt>
            <trkpt lon="100.958649" lat="12.946534">
                <ele>53.490479</ele>
                <time>2008-10-19T04:40:54Z</time>
            </trkpt>
            <trkpt lon="100.958613" lat="12.946387">
                <ele>53.009766</ele>
                <time>2008-10-19T04:40:59Z</time>
            </trkpt>
            <trkpt lon="100.958301" lat="12.945842">
                <ele>52.048584</ele>
                <time>2008-10-19T04:41:14Z</time>
            </trkpt>
            <trkpt lon="100.958287" lat="12.945529">
                <ele>52.048584</ele>
                <time>2008-10-19T04:41:21Z</time>
            </trkpt>
            <trkpt lon="100.958462" lat="12.944752">
                <ele>50.606567</ele>
                <time>2008-10-19T04:41:40Z</time>
            </trkpt>
            <trkpt lon="100.958468" lat="12.944719">
                <ele>51.087158</ele>
                <time>2008-10-19T04:41:42Z</time>
            </trkpt>
            <trkpt lon="100.958494" lat="12.944702">
                <ele>51.567871</ele>
                <time>2008-10-19T04:41:47Z</time>
            </trkpt>
            <trkpt lon="100.958626" lat="12.944709">
                <ele>52.048584</ele>
                <time>2008-10-19T04:41:53Z</time>
            </trkpt>
            <trkpt lon="100.958802" lat="12.944500">
                <ele>51.567871</ele>
                <time>2008-10-19T04:42:03Z</time>
            </trkpt>
            <trkpt lon="100.958936" lat="12.943726">
                <ele>48.203369</ele>
                <time>2008-10-19T04:42:24Z</time>
            </trkpt>
            <trkpt lon="100.959023" lat="12.942777">
                <ele>45.319214</ele>
                <time>2008-10-19T04:42:45Z</time>
            </trkpt>
            <trkpt lon="100.959036" lat="12.942617">
                <ele>45.799927</ele>
                <time>2008-10-19T04:42:51Z</time>
            </trkpt>
            <trkpt lon="100.958941" lat="12.942248">
                <ele>47.722534</ele>
                <time>2008-10-19T04:43:02Z</time>
            </trkpt>
            <trkpt lon="100.958703" lat="12.941356">
                <ele>47.722534</ele>
                <time>2008-10-19T04:43:19Z</time>
            </trkpt>
            <trkpt lon="100.958584" lat="12.940252">
                <ele>46.761231</ele>
                <time>2008-10-19T04:43:37Z</time>
            </trkpt>
            <trkpt lon="100.958441" lat="12.938998">
                <ele>46.761231</ele>
                <time>2008-10-19T04:43:59Z</time>
            </trkpt>
            <trkpt lon="100.958303" lat="12.937691">
                <ele>46.280640</ele>
                <time>2008-10-19T04:44:23Z</time>
            </trkpt>
            <trkpt lon="100.958175" lat="12.936568">
                <ele>46.280640</ele>
                <time>2008-10-19T04:44:44Z</time>
            </trkpt>
            <trkpt lon="100.958048" lat="12.935424">
                <ele>46.280640</ele>
                <time>2008-10-19T04:45:07Z</time>
            </trkpt>
            <trkpt lon="100.957928" lat="12.934302">
                <ele>46.280640</ele>
                <time>2008-10-19T04:45:30Z</time>
            </trkpt>
            <trkpt lon="100.957839" lat="12.933455">
                <ele>46.280640</ele>
                <time>2008-10-19T04:45:47Z</time>
            </trkpt>
            <trkpt lon="100.957716" lat="12.932329">
                <ele>46.280640</ele>
                <time>2008-10-19T04:46:09Z</time>
            </trkpt>
            <trkpt lon="100.957598" lat="12.931206">
                <ele>45.799927</ele>
                <time>2008-10-19T04:46:31Z</time>
            </trkpt>
            <trkpt lon="100.957487" lat="12.930245">
                <ele>45.319214</ele>
                <time>2008-10-19T04:46:50Z</time>
            </trkpt>
            <trkpt lon="100.957362" lat="12.929079">
                <ele>45.799927</ele>
                <time>2008-10-19T04:47:13Z</time>
            </trkpt>
            <trkpt lon="100.957239" lat="12.927958">
                <ele>46.280640</ele>
                <time>2008-10-19T04:47:35Z</time>
            </trkpt>
            <trkpt lon="100.957125" lat="12.926941">
                <ele>45.799927</ele>
                <time>2008-10-19T04:47:55Z</time>
            </trkpt>
            <trkpt lon="100.957004" lat="12.925762">
                <ele>45.319214</ele>
                <time>2008-10-19T04:48:18Z</time>
            </trkpt>
            <trkpt lon="100.956880" lat="12.924618">
                <ele>45.319214</ele>
                <time>2008-10-19T04:48:40Z</time>
            </trkpt>
            <trkpt lon="100.956729" lat="12.923241">
                <ele>45.319214</ele>
                <time>2008-10-19T04:49:06Z</time>
            </trkpt>
            <trkpt lon="100.956656" lat="12.922584">
                <ele>45.319214</ele>
                <time>2008-10-19T04:49:21Z</time>
            </trkpt>
            <trkpt lon="100.956820" lat="12.922486">
                <ele>44.838623</ele>
                <time>2008-10-19T04:49:29Z</time>
            </trkpt>
            <trkpt lon="100.957533" lat="12.922498">
                <ele>45.799927</ele>
                <time>2008-10-19T04:49:45Z</time>
            </trkpt>
            <trkpt lon="100.957619" lat="12.922497">
                <ele>45.319214</ele>
                <time>2008-10-19T04:49:47Z</time>
            </trkpt>
            <trkpt lon="100.957782" lat="12.922347">
                <ele>45.319214</ele>
                <time>2008-10-19T04:49:54Z</time>
            </trkpt>
            <trkpt lon="100.957771" lat="12.922316">
                <ele>46.280640</ele>
                <time>2008-10-19T04:49:55Z</time>
            </trkpt>
            <trkpt lon="100.957752" lat="12.922077">
                <ele>48.683960</ele>
                <time>2008-10-19T04:50:10Z</time>
            </trkpt>
            <trkpt lon="100.957752" lat="12.922056">
                <ele>51.567871</ele>
                <time>2008-10-19T04:50:47Z</time>
            </trkpt>
            <trkpt lon="100.957764" lat="12.922066">
                <ele>51.567871</ele>
                <time>2008-10-19T04:50:51Z</time>
            </trkpt>
            <trkpt lon="100.957921" lat="12.922330">
                <ele>49.164551</ele>
                <time>2008-10-19T04:51:07Z</time>
            </trkpt>
            <trkpt lon="100.957956" lat="12.922337">
                <ele>48.683960</ele>
                <time>2008-10-19T04:51:11Z</time>
            </trkpt>
            <trkpt lon="100.958038" lat="12.922076">
                <ele>46.280640</ele>
                <time>2008-10-19T04:51:19Z</time>
            </trkpt>
            <trkpt lon="100.957976" lat="12.921661">
                <ele>44.838623</ele>
                <time>2008-10-19T04:51:33Z</time>
            </trkpt>
            <trkpt lon="100.958036" lat="12.921414">
                <ele>42.435425</ele>
                <time>2008-10-19T04:51:45Z</time>
            </trkpt>
            <trkpt lon="100.958048" lat="12.921143">
                <ele>42.435425</ele>
                <time>2008-10-19T04:51:55Z</time>
            </trkpt>
            <trkpt lon="100.957973" lat="12.921049">
                <ele>41.954712</ele>
                <time>2008-10-19T04:52:00Z</time>
            </trkpt>
            <trkpt lon="100.958236" lat="12.920813">
                <ele>41.954712</ele>
                <time>2008-10-19T04:52:13Z</time>
            </trkpt>
            <trkpt lon="100.958596" lat="12.920753">
                <ele>42.435425</ele>
                <time>2008-10-19T04:52:25Z</time>
            </trkpt>
            <trkpt lon="100.958795" lat="12.920721">
                <ele>42.435425</ele>
                <time>2008-10-19T04:52:31Z</time>
            </trkpt>
            <trkpt lon="100.958954" lat="12.920761">
                <ele>42.435425</ele>
                <time>2008-10-19T04:52:36Z</time>
            </trkpt>
            <trkpt lon="100.959014" lat="12.920749">
                <ele>42.435425</ele>
                <time>2008-10-19T04:52:38Z</time>
            </trkpt>
            <trkpt lon="100.959269" lat="12.920739">
                <ele>42.916016</ele>
                <time>2008-10-19T04:52:48Z</time>
            </trkpt>
            <trkpt lon="100.959427" lat="12.920829">
                <ele>43.396606</ele>
                <time>2008-10-19T04:52:59Z</time>
            </trkpt>
            <trkpt lon="100.959475" lat="12.920847">
                <ele>43.877319</ele>
                <time>2008-10-19T04:53:11Z</time>
            </trkpt>
            <trkpt lon="100.959535" lat="12.920864">
                <ele>45.319214</ele>
                <time>2008-10-19T04:53:28Z</time>
            </trkpt>
            <trkpt lon="100.959559" lat="12.920876">
                <ele>45.319214</ele>
                <time>2008-10-19T04:53:47Z</time>
            </trkpt>
            <trkpt lon="100.959559" lat="12.920876">
                <ele>44.838623</ele>
                <time>2008-10-19T04:53:48Z</time>
            </trkpt>
            <trkpt lon="100.959569" lat="12.920906">
                <ele>45.319214</ele>
                <time>2008-10-19T04:54:09Z</time>
            </trkpt>
            <trkpt lon="100.959564" lat="12.920902">
                <ele>45.319214</ele>
                <time>2008-10-19T04:54:10Z</time>
            </trkpt>
            <trkpt lon="100.959532" lat="12.920831">
                <ele>46.280640</ele>
                <time>2008-10-19T04:54:26Z</time>
            </trkpt>
            <trkpt lon="100.959594" lat="12.920802">
                <ele>48.203369</ele>
                <time>2008-10-19T04:54:41Z</time>
            </trkpt>
            <trkpt lon="100.959629" lat="12.920734">
                <ele>50.606567</ele>
                <time>2008-10-19T04:55:02Z</time>
            </trkpt>
            <trkpt lon="100.959642" lat="12.920712">
                <ele>51.087158</ele>
                <time>2008-10-19T04:55:05Z</time>
            </trkpt>
            <trkpt lon="100.959695" lat="12.920649">
                <ele>50.606567</ele>
                <time>2008-10-19T04:55:12Z</time>
            </trkpt>
            <trkpt lon="100.959966" lat="12.920724">
                <ele>49.645264</ele>
                <time>2008-10-19T04:55:25Z</time>
            </trkpt>
            <trkpt lon="100.960335" lat="12.920747">
                <ele>50.125977</ele>
                <time>2008-10-19T04:55:39Z</time>
            </trkpt>
            <trkpt lon="100.960354" lat="12.920734">
                <ele>49.164551</ele>
                <time>2008-10-19T04:55:48Z</time>
            </trkpt>
            <trkpt lon="100.960326" lat="12.920689">
                <ele>51.087158</ele>
                <time>2008-10-19T04:55:57Z</time>
            </trkpt>
            <trkpt lon="100.960424" lat="12.920691">
                <ele>50.606567</ele>
                <time>2008-10-19T04:56:02Z</time>
            </trkpt>
            <trkpt lon="100.961055" lat="12.920830">
                <ele>47.722534</ele>
                <time>2008-10-19T04:56:18Z</time>
            </trkpt>
            <trkpt lon="100.962253" lat="12.921092">
                <ele>46.761231</ele>
                <time>2008-10-19T04:56:44Z</time>
            </trkpt>
            <trkpt lon="100.963442" lat="12.921312">
                <ele>45.319214</ele>
                <time>2008-10-19T04:57:08Z</time>
            </trkpt>
            <trkpt lon="100.964282" lat="12.921102">
                <ele>44.358032</ele>
                <time>2008-10-19T04:57:25Z</time>
            </trkpt>
            <trkpt lon="100.965277" lat="12.920758">
                <ele>45.799927</ele>
                <time>2008-10-19T04:57:46Z</time>
            </trkpt>
            <trkpt lon="100.966108" lat="12.920488">
                <ele>46.761231</ele>
                <time>2008-10-19T04:58:07Z</time>
            </trkpt>
            <trkpt lon="100.966838" lat="12.920239">
                <ele>47.241821</ele>
                <time>2008-10-19T04:58:25Z</time>
            </trkpt>
            <trkpt lon="100.967485" lat="12.919931">
                <ele>49.645264</ele>
                <time>2008-10-19T04:58:41Z</time>
            </trkpt>
            <trkpt lon="100.968200" lat="12.919212">
                <ele>47.241821</ele>
                <time>2008-10-19T04:59:02Z</time>
            </trkpt>
            <trkpt lon="100.969105" lat="12.918652">
                <ele>44.838623</ele>
                <time>2008-10-19T04:59:21Z</time>
            </trkpt>
            <trkpt lon="100.969968" lat="12.918536">
                <ele>46.280640</ele>
                <time>2008-10-19T04:59:38Z</time>
            </trkpt>
            <trkpt lon="100.970328" lat="12.918468">
                <ele>47.722534</ele>
                <time>2008-10-19T04:59:47Z</time>
            </trkpt>
            <trkpt lon="100.971432" lat="12.918297">
                <ele>49.645264</ele>
                <time>2008-10-19T05:00:11Z</time>
            </trkpt>
            <trkpt lon="100.972139" lat="12.918177">
                <ele>51.567871</ele>
                <time>2008-10-19T05:00:29Z</time>
            </trkpt>
            <trkpt lon="100.972666" lat="12.918109">
                <ele>53.009766</ele>
                <time>2008-10-19T05:00:44Z</time>
            </trkpt>
            <trkpt lon="100.973509" lat="12.917959">
                <ele>54.451782</ele>
                <time>2008-10-19T05:01:06Z</time>
            </trkpt>
            <trkpt lon="100.974362" lat="12.917831">
                <ele>57.335815</ele>
                <time>2008-10-19T05:01:29Z</time>
            </trkpt>
            <trkpt lon="100.974926" lat="12.917724">
                <ele>56.855103</ele>
                <time>2008-10-19T05:01:45Z</time>
            </trkpt>
            <trkpt lon="100.975616" lat="12.917629">
                <ele>58.297119</ele>
                <time>2008-10-19T05:02:03Z</time>
            </trkpt>
            <trkpt lon="100.976319" lat="12.917513">
                <ele>58.777710</ele>
                <time>2008-10-19T05:02:21Z</time>
            </trkpt>
            <trkpt lon="100.977201" lat="12.917350">
                <ele>61.661743</ele>
                <time>2008-10-19T05:02:45Z</time>
            </trkpt>
            <trkpt lon="100.977801" lat="12.917259">
                <ele>64.545654</ele>
                <time>2008-10-19T05:03:02Z</time>
            </trkpt>
            <trkpt lon="100.978496" lat="12.917101">
                <ele>65.987671</ele>
                <time>2008-10-19T05:03:22Z</time>
            </trkpt>
            <trkpt lon="100.978611" lat="12.917199">
                <ele>66.468262</ele>
                <time>2008-10-19T05:03:27Z</time>
            </trkpt>
            <trkpt lon="100.979109" lat="12.917103">
                <ele>68.871582</ele>
                <time>2008-10-19T05:03:45Z</time>
            </trkpt>
            <trkpt lon="100.979506" lat="12.916953">
                <ele>72.236206</ele>
                <time>2008-10-19T05:04:04Z</time>
            </trkpt>
            <trkpt lon="100.980130" lat="12.917133">
                <ele>72.236206</ele>
                <time>2008-10-19T05:04:27Z</time>
            </trkpt>
            <trkpt lon="100.980562" lat="12.917238">
                <ele>73.197632</ele>
                <time>2008-10-19T05:04:45Z</time>
            </trkpt>
            <trkpt lon="100.980831" lat="12.917390">
                <ele>74.158813</ele>
                <time>2008-10-19T05:04:57Z</time>
            </trkpt>
            <trkpt lon="100.981257" lat="12.917549">
                <ele>77.523438</ele>
                <time>2008-10-19T05:05:15Z</time>
            </trkpt>
            <trkpt lon="100.981349" lat="12.917623">
                <ele>77.042847</ele>
                <time>2008-10-19T05:05:20Z</time>
            </trkpt>
            <trkpt lon="100.981589" lat="12.917697">
                <ele>78.965454</ele>
                <time>2008-10-19T05:05:33Z</time>
            </trkpt>
            <trkpt lon="100.982031" lat="12.917938">
                <ele>82.330078</ele>
                <time>2008-10-19T05:05:53Z</time>
            </trkpt>
            <trkpt lon="100.982121" lat="12.917972">
                <ele>83.771973</ele>
                <time>2008-10-19T05:05:58Z</time>
            </trkpt>
            <trkpt lon="100.982648" lat="12.918218">
                <ele>84.252685</ele>
                <time>2008-10-19T05:06:21Z</time>
            </trkpt>
            <trkpt lon="100.983176" lat="12.918398">
                <ele>85.694580</ele>
                <time>2008-10-19T05:06:41Z</time>
            </trkpt>
            <trkpt lon="100.983792" lat="12.918579">
                <ele>86.175293</ele>
                <time>2008-10-19T05:07:02Z</time>
            </trkpt>
            <trkpt lon="100.984326" lat="12.918708">
                <ele>86.656006</ele>
                <time>2008-10-19T05:07:19Z</time>
            </trkpt>
            <trkpt lon="100.985034" lat="12.918807">
                <ele>86.656006</ele>
                <time>2008-10-19T05:07:40Z</time>
            </trkpt>
            <trkpt lon="100.985860" lat="12.918894">
                <ele>87.136597</ele>
                <time>2008-10-19T05:08:03Z</time>
            </trkpt>
            <trkpt lon="100.986500" lat="12.918941">
                <ele>87.617188</ele>
                <time>2008-10-19T05:08:22Z</time>
            </trkpt>
            <trkpt lon="100.987384" lat="12.918920">
                <ele>89.059326</ele>
                <time>2008-10-19T05:08:48Z</time>
            </trkpt>
            <trkpt lon="100.987600" lat="12.918954">
                <ele>90.020630</ele>
                <time>2008-10-19T05:08:55Z</time>
            </trkpt>
            <trkpt lon="100.987692" lat="12.918882">
                <ele>90.020630</ele>
                <time>2008-10-19T05:08:59Z</time>
            </trkpt>
            <trkpt lon="100.987853" lat="12.918574">
                <ele>90.020630</ele>
                <time>2008-10-19T05:09:13Z</time>
            </trkpt>
            <trkpt lon="100.988049" lat="12.918029">
                <ele>90.981934</ele>
                <time>2008-10-19T05:09:31Z</time>
            </trkpt>
            <trkpt lon="100.988428" lat="12.917535">
                <ele>89.059326</ele>
                <time>2008-10-19T05:09:45Z</time>
            </trkpt>
            <trkpt lon="100.989053" lat="12.916792">
                <ele>90.020630</ele>
                <time>2008-10-19T05:10:01Z</time>
            </trkpt>
            <trkpt lon="100.989258" lat="12.916774">
                <ele>90.020630</ele>
                <time>2008-10-19T05:10:05Z</time>
            </trkpt>
            <trkpt lon="100.989935" lat="12.917035">
                <ele>87.617188</ele>
                <time>2008-10-19T05:10:23Z</time>
            </trkpt>
            <trkpt lon="100.990775" lat="12.917381">
                <ele>88.578735</ele>
                <time>2008-10-19T05:10:47Z</time>
            </trkpt>
            <trkpt lon="100.991323" lat="12.917638">
                <ele>90.020630</ele>
                <time>2008-10-19T05:11:03Z</time>
            </trkpt>
            <trkpt lon="100.991494" lat="12.917743">
                <ele>89.539917</ele>
                <time>2008-10-19T05:11:08Z</time>
            </trkpt>
            <trkpt lon="100.992340" lat="12.918160">
                <ele>89.059326</ele>
                <time>2008-10-19T05:11:30Z</time>
            </trkpt>
            <trkpt lon="100.993178" lat="12.918526">
                <ele>89.059326</ele>
                <time>2008-10-19T05:11:51Z</time>
            </trkpt>
            <trkpt lon="100.993737" lat="12.918664">
                <ele>88.098022</ele>
                <time>2008-10-19T05:12:05Z</time>
            </trkpt>
            <trkpt lon="100.994588" lat="12.918502">
                <ele>85.694580</ele>
                <time>2008-10-19T05:12:23Z</time>
            </trkpt>
            <trkpt lon="100.995134" lat="12.918254">
                <ele>84.252685</ele>
                <time>2008-10-19T05:12:38Z</time>
            </trkpt>
            <trkpt lon="100.995130" lat="12.918149">
                <ele>83.771973</ele>
                <time>2008-10-19T05:12:41Z</time>
            </trkpt>
            <trkpt lon="100.994853" lat="12.918097">
                <ele>83.291382</ele>
                <time>2008-10-19T05:12:48Z</time>
            </trkpt>
            <trkpt lon="100.994313" lat="12.918262">
                <ele>83.771973</ele>
                <time>2008-10-19T05:13:06Z</time>
            </trkpt>
            <trkpt lon="100.994319" lat="12.918283">
                <ele>84.252685</ele>
                <time>2008-10-19T05:13:21Z</time>
            </trkpt>
            <trkpt lon="100.994314" lat="12.918276">
                <ele>86.175293</ele>
                <time>2008-10-19T05:14:05Z</time>
            </trkpt>
        </trkseg>
    </trk>
</gpx>